»·PEaware :: SWA1944 KBUR-KLAS

SWA1944 :: KBUR-KLAS

FLIGHT INFORMATION

Flight Status: Arrived
Operator:
Southwest Airlines
More flights by this operator :: More flights under this callsign
Pilot: Cody B. (17747)
Aircraft: BOEING 737-800
(B738)
More flights by this aircraft type
Origin: KBUR Bob Hope-Burbank
United States
Destination: KLAS McCarran Intl
United States
More flights between these airports :: More routes between these airports
Route: +SLAPP1 MISEN KEPEC6
File this flight plan on PilotEdge
Remarks: PBN / A1B1C1D1S1S2 DOF / 181009 REG / N8301J CODE / AB5ADE OPR / SWA PER / C RMK / TCAS SIMBRIEF
Altitude:
(Current/Filed)
29,000ft
Speed:
(Current/Filed)
452kts
Departed: 09-Oct-18 10:49 AM
Arrived: 09-Oct-18 11:39 AM
Distance/Time
Traveled:
194nm/0:50
Distance/Time
To Go:
Arrived

Flight Plot

Page will automatically refresh every two minutes.

Flight plan parsing failed; only flown route is shown


Map Options




Map Legend


Flown Route
Filed Route
Departure Airport
Arrival Airport
Navaid (VOR, NDB)
Fix

Horizontal Profiles

Position Reports

Time Latitude Longitude Heading Altitude Ground
Speed
09-Oct-18 10:15 34.196824 -118.350608 179 785ft 0kts
09-Oct-18 10:16 34.196824 -118.350608 179 785ft 0kts
09-Oct-18 10:17 34.196824 -118.350608 179 785ft 0kts
09-Oct-18 10:18 34.196824 -118.350608 179 785ft 0kts
09-Oct-18 10:19 34.196824 -118.350608 179 785ft 0kts
09-Oct-18 10:20 34.196824 -118.350608 179 785ft 0kts
09-Oct-18 10:21 34.196824 -118.350608 179 785ft 0kts
09-Oct-18 10:22 34.196824 -118.350608 179 785ft 0kts
09-Oct-18 10:23 34.196824 -118.350608 179 785ft 0kts
09-Oct-18 10:24 34.196824 -118.350608 179 785ft 0kts
09-Oct-18 10:25 34.196824 -118.350608 179 785ft 0kts
09-Oct-18 10:26 34.196824 -118.350608 179 785ft 0kts
09-Oct-18 10:27 34.196824 -118.350608 179 785ft 0kts
09-Oct-18 10:28 34.196824 -118.350608 179 785ft 0kts
09-Oct-18 10:29 34.196824 -118.350608 179 785ft 0kts
09-Oct-18 10:30 34.196824 -118.350608 179 785ft 0kts
09-Oct-18 10:31 34.196824 -118.350608 179 785ft 0kts
09-Oct-18 10:32 34.196824 -118.350608 179 785ft 0kts
09-Oct-18 10:33 34.196824 -118.350608 179 785ft 0kts
09-Oct-18 10:34 34.196824 -118.350608 179 785ft 0kts
09-Oct-18 10:35 34.196824 -118.350608 179 785ft 0kts
09-Oct-18 10:36 34.196824 -118.350608 179 785ft 0kts
09-Oct-18 10:37 34.197073 -118.350568 220 785ft 2kts
09-Oct-18 10:38 34.197152 -118.350293 271 785ft 0kts
09-Oct-18 10:39 34.197152 -118.350293 271 785ft 0kts
09-Oct-18 10:40 34.197152 -118.350293 271 785ft 0kts
09-Oct-18 10:41 34.197153 -118.350358 271 785ft 1kts
09-Oct-18 10:42 34.197161 -118.351257 271 785ft 5kts
09-Oct-18 10:43 34.197219 -118.353706 281 785ft 9kts
09-Oct-18 10:44 34.199598 -118.355588 347 785ft 13kts
09-Oct-18 10:45 34.203631 -118.356706 347 785ft 16kts
09-Oct-18 10:46 34.208572 -118.358070 347 785ft 19kts
09-Oct-18 10:47 34.211561 -118.359066 313 785ft 0kts
09-Oct-18 10:48 34.211569 -118.359077 312 785ft 0kts
09-Oct-18 10:49 34.211569 -118.359077 312 785ft 0kts
09-Oct-18 10:50 34.211834 -118.359768 262 785ft 6kts
09-Oct-18 10:51 34.205022 -118.358434 167 785ft 96kts
09-Oct-18 10:52 34.167927 -118.348534 174 1975ft 162kts
09-Oct-18 10:53 34.123558 -118.383454 221 3188ft 253kts
09-Oct-18 10:54 34.086490 -118.450649 286 6148ft 276kts
09-Oct-18 10:55 34.149040 -118.484551 13 8985ft 286kts
09-Oct-18 10:56 34.220223 -118.449463 22 10616ft 297kts
09-Oct-18 10:57 34.299923 -118.408641 22 13079ft 323kts
09-Oct-18 10:58 34.383293 -118.368594 19 15734ft 334kts
09-Oct-18 10:59 34.469486 -118.325429 32 18189ft 347kts
09-Oct-18 11:00 34.545477 -118.250517 36 20015ft 357kts
09-Oct-18 11:01 34.622345 -118.173243 35 22099ft 367kts
09-Oct-18 11:02 34.674835 -118.065379 72 22997ft 388kts
09-Oct-18 11:03 34.694536 -117.936340 82 22963ft 393kts
09-Oct-18 11:04 34.701951 -117.803404 81 23826ft 397kts
09-Oct-18 11:05 34.708254 -117.669037 82 24848ft 401kts
09-Oct-18 11:06 34.713424 -117.533007 81 25661ft 408kts
09-Oct-18 11:07 34.742420 -117.402065 66 26447ft 405kts
09-Oct-18 11:08 34.777072 -117.271721 67 27138ft 411kts
09-Oct-18 11:09 34.812094 -117.139200 66 27786ft 415kts
09-Oct-18 11:10 34.847381 -117.004943 66 28477ft 418kts
09-Oct-18 11:11 34.883411 -116.867432 66 28942ft 438kts
09-Oct-18 11:12 34.922768 -116.722551 57 28949ft 453kts
09-Oct-18 11:13 34.990615 -116.602914 48 27509ft 423kts
09-Oct-18 11:14 35.056815 -116.485005 48 25469ft 417kts
09-Oct-18 11:15 35.120169 -116.378379 38 23990ft 390kts
09-Oct-18 11:16 35.186544 -116.298366 39 23966ft 404kts
09-Oct-18 11:17 35.264962 -116.200087 39 23963ft 405kts
09-Oct-18 11:18 35.343477 -116.101272 39 23469ft 409kts
09-Oct-18 11:19 35.421065 -116.003233 40 20720ft 390kts
09-Oct-18 11:20 35.494052 -115.910713 41 18517ft 367kts
09-Oct-18 11:21 35.563805 -115.822201 42 16451ft 367kts
09-Oct-18 11:22 35.633789 -115.733162 43 14337ft 354kts
09-Oct-18 11:23 35.699929 -115.648681 43 13063ft 321kts
09-Oct-18 11:24 35.767223 -115.581904 14 13080ft 308kts
09-Oct-18 11:25 35.851331 -115.570664 0 13074ft 304kts
09-Oct-18 11:26 35.935179 -115.560525 18 13062ft 308kts
09-Oct-18 11:27 35.995374 -115.486097 65 12484ft 314kts
09-Oct-18 11:28 36.026110 -115.390251 71 11266ft 288kts
09-Oct-18 11:29 36.025686 -115.297067 94 10265ft 282kts
09-Oct-18 11:30 36.018688 -115.202732 94 9091ft 277kts
09-Oct-18 11:31 36.012610 -115.114579 93 8473ft 252kts
09-Oct-18 11:32 36.007193 -115.029927 93 7906ft 249kts
09-Oct-18 11:33 36.002166 -114.945394 93 6489ft 243kts
09-Oct-18 11:34 35.997170 -114.862511 93 5102ft 238kts
09-Oct-18 11:35 36.019249 -114.811946 336 5055ft 195kts
09-Oct-18 11:36 36.043757 -114.869886 290 5056ft 193kts
09-Oct-18 11:37 36.062350 -114.932072 290 5053ft 189kts
09-Oct-18 11:38 36.073311 -114.994347 266 4566ft 180kts
09-Oct-18 11:39 36.073351 -115.048866 276 3417ft 145kts
09-Oct-18 11:40 36.073667 -115.100626 271 2616ft 151kts
09-Oct-18 11:41 36.073691 -115.142662 275 2189ft 29kts
09-Oct-18 11:42 36.074765 -115.146013 299 2189ft 5kts
09-Oct-18 11:43 36.077279 -115.146560 345 2189ft 5kts
09-Oct-18 11:44 36.078318 -115.147938 24 2189ft 5kts
09-Oct-18 11:45 36.078483 -115.146565 95 2189ft 3kts
09-Oct-18 11:46 36.079091 -115.145880 343 2189ft 5kts
09-Oct-18 11:47 36.079682 -115.146201 335 2189ft 0kts
09-Oct-18 11:48 36.079682 -115.146200 335 2189ft 0kts
09-Oct-18 11:49 36.079682 -115.146200 335 2189ft 0kts
09-Oct-18 11:50 36.079682 -115.146200 335 2189ft 0kts
09-Oct-18 11:51 36.079682 -115.146200 335 2189ft 0kts
09-Oct-18 11:52 36.079682 -115.146200 335 2189ft 0kts
09-Oct-18 11:53 36.079682 -115.146200 335 2189ft 0kts
09-Oct-18 11:54 36.079682 -115.146200 335 2189ft 0kts

Navigation Log

Ident Type
Flight plan parsing failed, navigation log unavailable